createdAt,value
2023-03-12T00:02:19.018Z,10.75
2023-03-12T00:05:05.332Z,9.43
2023-03-12T00:07:51.990Z,13.30
2023-03-12T00:10:39.535Z,10.82
2023-03-12T00:13:25.604Z,12.60
2023-03-12T00:16:14.098Z,9.93
2023-03-12T00:19:01.407Z,8.02
2023-03-12T00:21:47.568Z,8.13
2023-03-12T00:24:33.604Z,9.82
2023-03-12T00:27:20.620Z,7.68
2023-03-12T00:30:07.721Z,6.35
2023-03-12T00:32:53.405Z,5.75
2023-03-12T00:35:39.293Z,4.70
2023-03-12T00:38:25.217Z,6.13
2023-03-12T00:41:11.144Z,5.70
2023-03-12T00:43:57.727Z,5.07
2023-03-12T00:46:43.887Z,7.68
2023-03-12T00:49:29.535Z,4.78
2023-03-12T00:52:15.511Z,7.65
2023-03-12T00:55:01.267Z,9.18
2023-03-12T00:57:47.126Z,7.78
2023-03-12T01:00:33.083Z,5.07
2023-03-12T01:03:19.267Z,7.88
2023-03-12T01:06:06.056Z,6.60
2023-03-12T01:08:52.514Z,5.85
2023-03-12T01:11:39.028Z,4.18
2023-03-12T01:14:25.555Z,5.72
2023-03-12T01:17:11.707Z,6.20
2023-03-12T01:19:57.557Z,6.28
2023-03-12T01:22:44.246Z,5.85
2023-03-12T01:25:30.496Z,5.65
2023-03-12T01:28:16.227Z,6.90
2023-03-12T01:31:13.412Z,5.35
2023-03-12T01:33:59.436Z,4.28
2023-03-12T01:36:47.789Z,6.60
2023-03-12T01:39:33.521Z,10.65
2023-03-12T01:42:19.393Z,5.20
2023-03-12T01:45:06.139Z,6.50
2023-03-12T01:47:53.102Z,6.63
2023-03-12T01:50:39.062Z,7.35
2023-03-12T01:53:25.443Z,6.47
2023-03-12T01:56:12.450Z,9.10
2023-03-12T01:59:15.560Z,8.18
2023-03-12T02:02:06.702Z,7.45
2023-03-12T02:05:04.644Z,8.90
2023-03-12T02:07:51.580Z,6.43
2023-03-12T02:10:37.843Z,7.28
2023-03-12T02:13:23.934Z,5.90
2023-03-12T02:16:10.248Z,5.28
2023-03-12T02:18:57.392Z,7.28
2023-03-12T02:21:43.612Z,8.27
2023-03-12T02:24:40.057Z,10.60
2023-03-12T02:27:27.526Z,9.40
2023-03-12T02:30:18.654Z,6.30
2023-03-12T02:33:07.519Z,9.50
2023-03-12T02:35:54.477Z,10.52
2023-03-12T02:38:52.023Z,5.93
2023-03-12T02:41:54.621Z,8.05
2023-03-12T02:44:43.765Z,6.10
2023-03-12T02:47:33.090Z,6.30
2023-03-12T02:50:19.488Z,6.38
2023-03-12T02:53:05.297Z,6.38
2023-03-12T02:55:52.040Z,9.52
2023-03-12T02:58:38.038Z,8.02
2023-03-12T03:01:23.970Z,5.50
2023-03-12T03:04:11.794Z,5.97
2023-03-12T03:06:58.040Z,6.80
2023-03-12T03:09:44.461Z,5.97
2023-03-12T03:12:31.344Z,6.07
2023-03-12T03:15:18.665Z,6.30
2023-03-12T03:18:05.238Z,5.65
2023-03-12T03:20:59.722Z,8.20
2023-03-12T03:23:47.876Z,5.57
2023-03-12T03:26:34.218Z,10.93
2023-03-12T03:29:20.756Z,8.82
2023-03-12T03:32:07.371Z,7.72
2023-03-12T03:34:53.173Z,7.80
2023-03-12T03:37:39.710Z,7.60
2023-03-12T03:40:25.951Z,5.25
2023-03-12T03:43:11.683Z,7.68
2023-03-12T03:46:03.059Z,6.82
2023-03-12T03:48:53.008Z,5.30
2023-03-12T03:51:42.657Z,6.75
2023-03-12T03:54:32.091Z,9.77
2023-03-12T03:57:18.926Z,5.22
2023-03-12T04:00:09.583Z,9.93
2023-03-12T04:02:59.407Z,5.63
2023-03-12T04:05:45.597Z,6.00
2023-03-12T04:08:35.462Z,4.03
2023-03-12T04:11:22.703Z,6.45
2023-03-12T04:14:08.630Z,6.03
2023-03-12T04:16:57.043Z,4.95
2023-03-12T04:19:42.843Z,5.07
2023-03-12T04:22:28.832Z,9.93
2023-03-12T04:25:14.762Z,4.72
2023-03-12T04:28:01.353Z,5.70
2023-03-12T04:30:59.616Z,5.05
2023-03-12T04:33:46.337Z,5.57
2023-03-12T04:36:32.643Z,9.70
2023-03-12T04:39:20.400Z,4.88
2023-03-12T04:42:09.868Z,4.78
2023-03-12T04:44:56.276Z,4.32
2023-03-12T04:47:42.150Z,5.50
2023-03-12T04:50:29.214Z,5.90
2023-03-12T04:53:16.672Z,6.57
2023-03-12T04:56:02.353Z,5.82
2023-03-12T04:58:49.369Z,5.55
2023-03-12T05:01:36.800Z,5.50
2023-03-12T05:04:27.626Z,5.65
2023-03-12T05:07:15.220Z,3.83
2023-03-12T05:10:01.336Z,4.28
2023-03-12T05:12:47.467Z,6.03
2023-03-12T05:15:37.047Z,4.18
2023-03-12T05:18:23.392Z,3.22
2023-03-12T05:21:12.515Z,6.82
2023-03-12T05:23:59.123Z,6.40
2023-03-12T05:26:47.238Z,6.20
2023-03-12T05:29:36.505Z,4.63
2023-03-12T05:32:23.464Z,5.15
2023-03-12T05:35:09.946Z,8.48
2023-03-12T05:37:56.073Z,6.55
2023-03-12T05:40:41.826Z,5.60
2023-03-12T05:43:27.793Z,4.03
2023-03-12T05:46:14.865Z,5.43
2023-03-12T05:49:00.853Z,5.07
2023-03-12T05:51:49.146Z,5.38
2023-03-12T05:54:35.598Z,6.50
2023-03-12T05:57:24.072Z,4.53
2023-03-12T06:00:12.664Z,7.60
2023-03-12T06:03:01.747Z,6.22
2023-03-12T06:05:48.383Z,7.88
2023-03-12T06:08:34.463Z,5.45
2023-03-12T06:11:20.323Z,7.35
2023-03-12T06:14:07.087Z,4.03
2023-03-12T06:16:54.919Z,7.20
2023-03-12T06:19:40.601Z,4.65
2023-03-12T06:22:26.881Z,3.97
2023-03-12T06:25:12.675Z,6.95
2023-03-12T06:28:00.000Z,4.55
2023-03-12T06:30:45.727Z,4.70
2023-03-12T06:33:32.047Z,5.70
2023-03-12T06:36:18.159Z,4.55
2023-03-12T06:39:06.507Z,4.95
2023-03-12T06:41:52.173Z,5.72
2023-03-12T06:44:37.765Z,5.13
2023-03-12T06:47:23.550Z,6.10
2023-03-12T06:50:09.976Z,6.80
2023-03-12T06:52:56.105Z,9.15
2023-03-12T06:55:43.659Z,5.35
2023-03-12T06:58:29.732Z,5.88
2023-03-12T07:01:15.540Z,10.43
2023-03-12T07:04:01.543Z,7.35
2023-03-12T07:06:51.419Z,5.43
2023-03-12T07:09:37.566Z,6.30
2023-03-12T07:12:23.855Z,4.60
2023-03-12T07:15:10.178Z,7.82
2023-03-12T07:17:57.145Z,7.05
2023-03-12T07:20:43.875Z,6.13
2023-03-12T07:23:29.894Z,3.20
2023-03-12T07:26:15.974Z,6.93
2023-03-12T07:29:03.116Z,4.22
2023-03-12T07:31:48.905Z,7.25
2023-03-12T07:34:34.972Z,3.08
2023-03-12T07:37:21.311Z,6.10
2023-03-12T07:40:08.186Z,4.40
2023-03-12T07:42:54.255Z,6.00
2023-03-12T07:45:40.407Z,5.70
2023-03-12T07:48:26.336Z,4.53
2023-03-12T07:51:12.225Z,6.57
2023-03-12T07:53:58.034Z,2.47
2023-03-12T07:56:43.955Z,4.43
2023-03-12T07:59:29.919Z,3.33
2023-03-12T08:02:16.109Z,11.30
2023-03-12T08:05:02.392Z,3.25
2023-03-12T08:07:48.164Z,2.20
2023-03-12T08:10:33.987Z,2.92
2023-03-12T08:13:20.054Z,3.63
2023-03-12T08:16:08.946Z,2.72
2023-03-12T08:18:55.479Z,3.85
2023-03-12T08:21:41.796Z,8.82
2023-03-12T08:24:27.532Z,3.58
2023-03-12T08:27:14.418Z,3.42
2023-03-12T08:30:00.341Z,4.97
2023-03-12T08:32:46.537Z,3.22
2023-03-12T08:35:32.561Z,3.25
2023-03-12T08:38:18.370Z,3.22
2023-03-12T08:41:04.349Z,3.55
2023-03-12T08:43:50.209Z,5.07
2023-03-12T08:46:36.138Z,3.90
2023-03-12T08:49:22.664Z,9.10
2023-03-12T08:52:08.995Z,3.83
2023-03-12T08:54:55.054Z,4.32
2023-03-12T08:57:41.118Z,3.00
2023-03-12T09:00:27.100Z,3.17
2023-03-12T09:03:14.937Z,3.10
2023-03-12T09:06:17.009Z,3.40
2023-03-12T09:09:06.436Z,2.67
2023-03-12T09:11:52.225Z,7.65
2023-03-12T09:17:44.205Z,2.85
2023-03-12T09:20:30.248Z,2.30
2023-03-12T09:23:16.137Z,4.38
2023-03-12T09:26:01.954Z,3.88
2023-03-12T09:28:47.874Z,3.40
2023-03-12T09:31:36.118Z,2.78
2023-03-12T09:34:22.534Z,5.90
2023-03-12T09:37:08.519Z,2.83
2023-03-12T09:39:55.779Z,3.05
2023-03-12T09:42:47.975Z,3.60
2023-03-12T09:45:42.791Z,2.60
2023-03-12T09:48:36.231Z,3.90
2023-03-12T09:51:44.842Z,5.93
2023-03-12T09:54:42.695Z,4.03
2023-03-12T09:57:30.056Z,3.67
2023-03-12T10:00:22.518Z,3.70
2023-03-12T10:03:23.887Z,8.45
2023-03-12T10:06:21.494Z,2.47
2023-03-12T10:09:29.969Z,2.17
2023-03-12T10:12:30.087Z,3.35
2023-03-12T10:15:28.366Z,4.57
2023-03-12T10:18:35.989Z,2.42
2023-03-12T10:21:31.397Z,3.03
2023-03-12T10:24:28.953Z,3.65
2023-03-12T10:27:17.731Z,4.10
2023-03-12T10:30:14.495Z,3.90
2023-03-12T10:33:04.466Z,3.15
2023-03-12T10:35:52.060Z,3.65
2023-03-12T10:38:38.082Z,4.45
2023-03-12T10:41:26.656Z,3.15
2023-03-12T10:44:21.776Z,2.90
2023-03-12T10:47:17.925Z,3.55
2023-03-12T10:50:26.759Z,3.40
2023-03-12T10:53:28.567Z,2.92
2023-03-12T10:56:17.950Z,2.65
2023-03-12T10:59:21.177Z,3.40
2023-03-12T11:05:49.628Z,2.42
2023-03-12T11:08:36.900Z,2.83
2023-03-12T11:11:35.084Z,2.63
2023-03-12T11:14:29.417Z,2.60
2023-03-12T11:17:27.016Z,2.92
2023-03-12T11:20:25.342Z,3.22
2023-03-12T11:23:17.035Z,2.05
2023-03-12T11:26:25.578Z,2.53
2023-03-12T11:29:14.604Z,2.72
2023-03-12T11:32:11.030Z,2.35
2023-03-12T11:34:57.630Z,2.50
2023-03-12T11:37:52.776Z,5.20
2023-03-12T11:40:57.177Z,2.30
2023-03-12T11:44:01.911Z,2.50
2023-03-12T11:47:02.920Z,4.40
2023-03-12T11:50:08.768Z,2.30
2023-03-12T11:53:17.537Z,3.05
2023-03-12T11:56:39.692Z,2.40
2023-03-12T11:59:41.821Z,4.65
2023-03-12T12:02:55.727Z,3.05
2023-03-12T12:05:51.090Z,3.15
2023-03-12T12:08:55.224Z,1.98
2023-03-12T12:11:56.786Z,3.85
2023-03-12T12:15:20.693Z,1.98
2023-03-12T12:18:40.662Z,3.25
2023-03-12T12:21:55.466Z,2.28
2023-03-12T12:25:18.202Z,2.97
2023-03-12T12:28:23.058Z,3.20
2023-03-12T12:31:19.045Z,2.17
2023-03-12T12:34:30.134Z,12.40
2023-03-12T12:37:44.823Z,4.90
2023-03-12T12:40:37.508Z,3.17
2023-03-12T12:46:22.498Z,2.50
2023-03-12T12:49:23.892Z,3.22
2023-03-12T12:52:13.718Z,2.33
2023-03-12T12:55:10.708Z,2.05
2023-03-12T12:58:01.484Z,2.22
2023-03-12T13:00:55.043Z,3.88
2023-03-12T13:03:41.074Z,4.13
2023-03-12T13:07:08.532Z,3.97
2023-03-12T13:09:57.173Z,2.58
2023-03-12T13:12:49.938Z,4.25
2023-03-12T13:18:28.448Z,1.70
2023-03-12T13:21:19.890Z,3.63
2023-03-12T13:24:17.120Z,2.28
2023-03-12T13:27:28.721Z,3.13
2023-03-12T13:30:33.058Z,1.60
2023-03-12T13:33:21.805Z,2.38
2023-03-12T13:36:16.725Z,3.55
2023-03-12T13:39:08.472Z,5.28
2023-03-12T13:41:59.022Z,1.83
2023-03-12T13:44:46.612Z,1.95
2023-03-12T13:47:39.047Z,4.40
2023-03-12T13:50:25.505Z,3.10
2023-03-12T13:53:17.136Z,3.20
2023-03-12T13:56:10.771Z,3.80
2023-03-12T13:59:00.519Z,5.55
2023-03-12T14:01:51.399Z,2.88
2023-03-12T14:04:39.123Z,1.75
2023-03-12T14:07:40.250Z,2.85
2023-03-12T14:10:32.327Z,5.28
2023-03-12T14:13:25.763Z,3.85
2023-03-12T14:16:35.899Z,3.05
2023-03-12T14:19:27.436Z,4.35
2023-03-12T14:22:13.748Z,1.95
2023-03-12T14:25:04.437Z,2.25
2023-03-12T14:27:50.372Z,3.40
2023-03-12T14:30:54.543Z,2.25
2023-03-12T14:33:52.530Z,1.55
2023-03-12T14:36:41.761Z,4.13
2023-03-12T14:39:46.178Z,2.75
2023-03-12T14:42:34.589Z,3.53
2023-03-12T14:45:23.557Z,6.75
2023-03-12T14:48:12.014Z,3.45
2023-03-12T14:50:59.921Z,4.03
2023-03-12T14:53:45.984Z,2.17
2023-03-12T14:56:35.890Z,3.42
2023-03-12T14:59:25.590Z,3.10
2023-03-12T15:02:14.528Z,3.38
2023-03-12T15:05:01.900Z,1.88
2023-03-12T15:07:49.006Z,1.75
2023-03-12T15:10:35.390Z,2.40
2023-03-12T15:13:23.229Z,4.03
2023-03-12T15:16:09.301Z,2.40
2023-03-12T15:18:55.258Z,2.35
2023-03-12T15:21:41.532Z,3.38
2023-03-12T15:24:29.128Z,3.88
2023-03-12T15:27:28.801Z,2.78
2023-03-12T15:30:26.038Z,3.15
2023-03-12T15:33:24.583Z,4.57
2023-03-12T15:36:19.960Z,3.97
2023-03-12T15:39:32.774Z,4.00
2023-03-12T15:42:23.558Z,1.92
2023-03-12T15:45:21.371Z,4.30
2023-03-12T15:48:30.050Z,2.72
2023-03-12T15:51:36.664Z,2.90
2023-03-12T15:54:27.365Z,5.70
2023-03-12T15:57:26.067Z,3.47
2023-03-12T16:00:14.813Z,2.08
2023-03-12T16:03:06.221Z,5.13
2023-03-12T16:05:52.012Z,1.75
2023-03-12T16:08:45.036Z,3.92
2023-03-12T16:11:33.435Z,4.82
2023-03-12T16:14:24.588Z,2.35
2023-03-12T16:17:14.070Z,5.20
2023-03-12T16:20:00.006Z,4.85
2023-03-12T16:22:45.824Z,2.75
2023-03-12T16:25:31.792Z,4.38
2023-03-12T16:28:19.408Z,4.35
2023-03-12T16:31:11.470Z,2.10
2023-03-12T16:33:58.194Z,4.10
2023-03-12T16:36:44.331Z,8.63
2023-03-12T16:39:33.281Z,9.63
2023-03-12T16:42:20.046Z,15.00
2023-03-12T16:45:09.155Z,4.47
2023-03-12T16:48:00.178Z,2.88
2023-03-12T16:50:53.031Z,3.30
2023-03-12T16:53:38.934Z,3.10
2023-03-12T16:56:26.182Z,4.10
2023-03-12T16:59:23.833Z,3.85
2023-03-12T17:02:15.943Z,6.68
2023-03-12T17:05:02.286Z,4.05
2023-03-12T17:07:48.246Z,7.80
2023-03-12T17:10:34.198Z,5.00
2023-03-12T17:13:22.932Z,4.00
2023-03-12T17:16:11.543Z,4.72
2023-03-12T17:18:57.440Z,5.53
2023-03-12T17:21:44.303Z,11.65
2023-03-12T17:24:30.403Z,7.15
2023-03-12T17:27:16.594Z,9.55
2023-03-12T17:30:02.936Z,8.07
2023-03-12T17:32:50.257Z,5.65
2023-03-12T17:35:37.090Z,4.43
2023-03-12T17:38:24.760Z,7.78
2023-03-12T17:41:25.564Z,8.60
2023-03-12T17:44:14.867Z,5.97
2023-03-12T17:47:02.224Z,8.48
2023-03-12T17:49:48.527Z,7.53
2023-03-12T17:52:34.395Z,14.07
2023-03-12T17:55:20.230Z,13.55
2023-03-12T17:58:06.442Z,13.93
2023-03-12T18:00:52.380Z,22.35
2023-03-12T18:03:38.473Z,27.42
2023-03-12T18:06:25.045Z,27.23
2023-03-12T18:09:11.018Z,18.45
2023-03-12T18:11:56.952Z,10.60
2023-03-12T18:14:42.767Z,18.92
2023-03-12T18:17:28.691Z,6.15
2023-03-12T18:20:19.562Z,7.57
2023-03-12T18:23:11.763Z,8.38
2023-03-12T18:25:57.604Z,7.30
2023-03-12T18:28:43.527Z,7.93
2023-03-12T18:31:29.542Z,9.63
2023-03-12T18:34:16.106Z,13.80
2023-03-12T18:37:02.098Z,9.93
2023-03-12T18:39:48.116Z,11.05
2023-03-12T18:42:34.249Z,11.82
2023-03-12T18:45:20.133Z,11.05
2023-03-12T18:48:05.996Z,7.15
2023-03-12T18:50:51.906Z,7.07
2023-03-12T18:53:37.767Z,9.82
2023-03-12T18:56:23.620Z,5.38
2023-03-12T18:59:14.608Z,5.82
2023-03-12T19:02:00.572Z,6.55
2023-03-12T19:04:46.369Z,5.70
2023-03-12T19:07:32.546Z,9.65
2023-03-12T19:10:18.984Z,6.50
2023-03-12T19:13:04.968Z,5.30
2023-03-12T19:15:58.086Z,13.68
2023-03-12T19:18:43.902Z,7.90
2023-03-12T19:21:29.701Z,10.98
2023-03-12T19:24:15.619Z,14.07
2023-03-12T19:27:01.399Z,16.42
2023-03-12T19:29:47.224Z,6.07
2023-03-12T19:32:42.554Z,5.97
2023-03-12T19:35:29.256Z,6.40
2023-03-12T19:38:15.115Z,11.68
2023-03-12T19:41:00.959Z,6.63
2023-03-12T19:43:46.754Z,7.90
2023-03-12T19:46:32.862Z,12.05
2023-03-12T19:49:18.858Z,9.15
2023-03-12T19:52:04.650Z,10.35
2023-03-12T19:55:03.470Z,12.13
2023-03-12T19:57:50.515Z,9.35
2023-03-12T20:00:36.707Z,11.35
2023-03-12T20:03:23.257Z,11.85
2023-03-12T20:06:10.309Z,15.93
2023-03-12T20:08:56.329Z,10.57
2023-03-12T20:11:42.069Z,10.75
2023-03-12T20:14:28.109Z,22.42
2023-03-12T20:17:15.003Z,12.60
2023-03-12T20:20:01.495Z,11.55
2023-03-12T20:22:49.513Z,11.15
2023-03-12T20:25:39.550Z,11.25
2023-03-12T20:28:25.536Z,9.30
2023-03-12T20:31:14.046Z,15.10
2023-03-12T20:34:00.215Z,9.52
2023-03-12T20:36:46.214Z,27.90
2023-03-12T20:39:31.846Z,12.38
2023-03-12T20:42:17.667Z,16.23
2023-03-12T20:45:03.836Z,13.23
2023-03-12T20:47:50.181Z,13.77
2023-03-12T20:50:37.885Z,14.32
2023-03-12T20:53:23.664Z,14.30
2023-03-12T20:56:10.610Z,11.65
2023-03-12T20:58:57.275Z,10.98
2023-03-12T21:01:43.467Z,8.30
2023-03-12T21:04:29.712Z,17.08
2023-03-12T21:07:15.540Z,13.05
2023-03-12T21:10:01.251Z,20.33
2023-03-12T21:12:47.143Z,26.10
2023-03-12T21:15:33.081Z,39.97
2023-03-12T21:18:19.270Z,36.08
2023-03-12T21:21:06.778Z,45.80
2023-03-12T21:23:53.289Z,41.85
2023-03-12T21:26:39.016Z,30.73
2023-03-12T21:29:24.882Z,27.60
2023-03-12T21:32:10.740Z,22.83
2023-03-12T21:34:56.693Z,23.63
2023-03-12T21:37:43.608Z,41.08
2023-03-12T21:40:29.382Z,30.67
2023-03-12T21:43:15.182Z,49.53
2023-03-12T21:46:12.165Z,28.83
2023-03-12T21:49:01.481Z,26.60
2023-03-12T21:51:47.303Z,19.65
2023-03-12T21:54:34.288Z,15.25
2023-03-12T21:57:20.424Z,17.23
2023-03-12T22:00:11.782Z,11.98
2023-03-12T22:02:57.687Z,12.80
2023-03-12T22:05:43.424Z,28.33
2023-03-12T22:08:29.399Z,27.08
2023-03-12T22:11:15.940Z,33.05
2023-03-12T22:14:02.008Z,20.70
2023-03-12T22:16:48.050Z,25.25
2023-03-12T22:19:33.853Z,23.88
2023-03-12T22:22:19.733Z,37.50
2023-03-12T22:25:05.954Z,23.83
2023-03-12T22:27:51.989Z,26.30
2023-03-12T22:30:37.900Z,20.48
2023-03-12T22:33:23.691Z,21.17
2023-03-12T22:36:12.652Z,14.25
2023-03-12T22:38:58.488Z,14.30
2023-03-12T22:41:44.352Z,38.22
2023-03-12T22:44:30.234Z,20.42
2023-03-12T22:47:15.922Z,18.75
2023-03-12T22:50:01.922Z,14.60
2023-03-12T22:52:47.715Z,11.68
2023-03-12T22:55:33.999Z,10.85
2023-03-12T22:58:20.072Z,7.80
2023-03-12T23:01:14.518Z,11.30
2023-03-12T23:04:00.645Z,12.23
2023-03-12T23:06:46.835Z,10.23
2023-03-12T23:09:32.606Z,11.95
2023-03-12T23:12:18.504Z,13.95
2023-03-12T23:15:04.748Z,14.27
2023-03-12T23:17:50.867Z,13.43
2023-03-12T23:20:36.892Z,13.98
2023-03-12T23:23:22.695Z,10.13
2023-03-12T23:26:08.828Z,12.77
2023-03-12T23:28:56.113Z,13.38
2023-03-12T23:31:41.938Z,13.88
2023-03-12T23:34:27.811Z,11.93
2023-03-12T23:37:14.346Z,13.23
2023-03-12T23:40:00.252Z,16.48
2023-03-12T23:42:46.067Z,9.30
2023-03-12T23:45:31.863Z,10.68
2023-03-12T23:48:17.950Z,11.25
2023-03-12T23:51:15.968Z,10.48
2023-03-12T23:54:05.389Z,13.80
2023-03-12T23:56:51.394Z,14.02
2023-03-12T23:59:37.493Z,11.50
